Time;durP1;ratioP1;P1;durP2;ratioP2;P2;SDS_P1;SDS_P2;PMS_P1;PMS_P2;Temp;Humidity;BMP_temperature;BMP_pressure;BME280_temperature;BME280_humidity;BME280_pressure;Samples;Min_cycle;Max_cycle;Signal;HPM_P1;HPM_P2
2022/07/04 00:00:34;;;;;;;8.53;5.27;;;;;;;13.31;100.00;101141.19;7397146;19;20395;-62
2022/07/04 00:03:05;;;;;;;9.73;5.20;;;;;;;13.34;100.00;101139.59;7390201;19;20499;-62
2022/07/04 00:05:37;;;;;;;8.97;4.97;;;;;;;13.35;100.00;101140.50;7394331;19;20410;-62
2022/07/04 00:08:07;;;;;;;8.07;4.63;;;;;;;13.26;100.00;101141.03;7393370;19;20447;-62
2022/07/04 00:10:36;;;;;;;12.30;5.57;;;;;;;13.22;100.00;101137.47;7397363;19;20390;-62
2022/07/04 00:13:06;;;;;;;10.07;5.13;;;;;;;13.23;100.00;101156.50;7391185;19;20422;-62
2022/07/04 00:15:36;;;;;;;9.03;4.67;;;;;;;13.20;100.00;101156.34;7394569;19;20506;-62
2022/07/04 00:18:06;;;;;;;13.47;4.90;;;;;;;13.19;100.00;101150.28;7389748;19;20418;-62
2022/07/04 00:20:38;;;;;;;10.30;5.20;;;;;;;13.19;100.00;101154.59;7396802;19;20404;-62
2022/07/04 00:23:07;;;;;;;10.60;5.90;;;;;;;13.21;100.00;101148.66;7389510;19;20418;-62
2022/07/04 00:25:37;;;;;;;8.07;5.43;;;;;;;13.15;100.00;101152.69;7393958;19;20416;-62
2022/07/04 00:28:07;;;;;;;9.77;4.83;;;;;;;13.15;100.00;101156.19;7389645;19;20406;-62
2022/07/04 00:30:36;;;;;;;11.83;4.70;;;;;;;13.14;100.00;101154.44;7396652;19;20395;-62
2022/07/04 00:33:09;;;;;;;9.87;5.17;;;;;;;13.14;100.00;101161.31;7389303;19;20433;-62
2022/07/04 00:35:41;;;;;;;8.60;5.30;;;;;;;13.06;100.00;101161.91;7393729;19;20395;-62
2022/07/04 00:38:11;;;;;;;13.60;5.30;;;;;;;13.06;100.00;101154.13;7389368;19;20421;-62
2022/07/04 00:40:40;;;;;;;10.90;6.37;;;;;;;13.07;100.00;101161.06;7395596;19;20400;-62
2022/07/04 00:43:10;;;;;;;15.33;5.30;;;;;;;13.05;100.00;101159.25;7391775;19;20434;-62
2022/07/04 00:45:39;;;;;;;8.90;5.30;;;;;;;13.03;100.00;101155.72;7394275;19;20414;-62
2022/07/04 00:48:09;;;;;;;8.03;5.67;;;;;;;13.03;100.00;101159.19;7389122;19;20431;-62
2022/07/04 00:50:41;;;;;;;8.33;5.10;;;;;;;12.99;100.00;101157.31;7395255;19;20402;-62
2022/07/04 00:53:11;;;;;;;14.90;5.00;;;;;;;12.96;100.00;101162.38;7386776;19;21016;-62
2022/07/04 00:55:41;;;;;;;14.67;4.87;;;;;;;12.93;100.00;101170.03;7393259;19;20425;-62
2022/07/04 00:58:10;;;;;;;9.20;5.50;;;;;;;12.88;100.00;101167.28;7387984;19;20415;-62
2022/07/04 01:00:40;;;;;;;11.93;5.80;;;;;;;12.97;100.00;101161.53;7394714;19;20391;-62
2022/07/04 01:03:10;;;;;;;12.43;5.30;;;;;;;12.95;100.00;101160.59;7387446;19;20423;-62
2022/07/04 01:05:43;;;;;;;9.73;6.00;;;;;;;12.90;100.00;101163.03;7393287;19;20396;-62
2022/07/04 01:08:12;;;;;;;14.43;6.90;;;;;;;12.89;100.00;101173.31;7389158;19;20407;-62
2022/07/04 01:10:42;;;;;;;10.10;6.07;;;;;;;12.88;100.00;101181.91;7394138;19;20385;-62
2022/07/04 01:13:21;;;;;;;9.90;6.83;;;;;;;12.87;100.00;101177.56;7386808;19;20444;-62
2022/07/04 01:15:52;;;;;;;12.97;7.60;;;;;;;12.89;100.00;101175.91;7392461;19;20420;-62
2022/07/04 01:18:22;;;;;;;15.37;7.43;;;;;;;12.87;100.00;101180.16;7386200;19;20416;-62
2022/07/04 01:20:54;;;;;;;14.80;7.70;;;;;;;12.87;100.00;101178.44;7394516;19;20392;-62
2022/07/04 01:23:24;;;;;;;12.47;8.30;;;;;;;12.81;100.00;101183.38;7388244;19;20918;-62
2022/07/04 01:25:53;;;;;;;16.63;9.00;;;;;;;12.84;100.00;101183.50;7392476;19;20884;-61
2022/07/04 01:28:23;;;;;;;14.33;8.93;;;;;;;12.81;100.00;101184.25;7387902;19;20424;-62
2022/07/04 01:30:54;;;;;;;15.67;8.93;;;;;;;12.78;100.00;101183.25;7394247;19;20389;-62
2022/07/04 01:33:23;;;;;;;12.97;7.90;;;;;;;12.76;100.00;101190.97;7387104;19;21005;-62
2022/07/04 01:35:56;;;;;;;21.13;9.20;;;;;;;12.76;100.00;101195.28;7392053;19;20425;-62
2022/07/04 01:38:25;;;;;;;15.27;9.33;;;;;;;12.78;100.00;101194.47;7387544;19;20419;-63
2022/07/04 01:40:55;;;;;;;15.30;10.10;;;;;;;12.76;100.00;101195.28;7391306;19;20402;-62
2022/07/04 01:43:24;;;;;;;16.77;10.00;;;;;;;12.73;100.00;101190.84;7387522;19;20444;-62
2022/07/04 01:45:54;;;;;;;16.77;9.60;;;;;;;12.73;100.00;101190.84;7393438;19;20418;-62
2022/07/04 01:48:23;;;;;;;19.40;11.23;;;;;;;12.75;100.00;101194.38;7388558;19;20430;-61
2022/07/04 01:50:55;;;;;;;16.07;10.80;;;;;;;12.72;100.00;101191.66;7396671;19;20736;-62
2022/07/04 01:53:25;;;;;;;18.37;11.20;;;;;;;12.69;100.00;101199.31;7387206;19;20440;-62
2022/07/04 01:55:55;;;;;;;22.83;13.43;;;;;;;12.72;100.00;101199.41;7392740;19;20940;-62
2022/07/04 01:58:24;;;;;;;21.30;12.70;;;;;;;12.72;100.00;101204.59;7388733;19;20411;-62
2022/07/04 02:03:36;;;;;;;22.10;14.37;;;;;;;12.75;100.00;101207.31;7388780;19;20497;-61
2022/07/04 02:06:08;;;;;;;24.23;14.47;;;;;;;12.76;100.00;101203.91;7392379;19;20516;-62
2022/07/04 02:11:19;;;;;;;22.30;14.87;;;;;;;12.69;100.00;101194.13;7392656;19;20474;-62
2022/07/04 02:13:46;;;;;;;26.07;16.50;;;;;;;12.76;100.00;101198.72;7387052;19;20446;-62
2022/07/04 02:16:16;;;;;;;30.50;15.93;;;;;;;12.75;100.00;101198.66;7396435;19;20775;-62
2022/07/04 02:18:45;;;;;;;30.50;16.47;;;;;;;12.72;100.00;101199.41;7387968;19;20437;-62
2022/07/04 02:21:17;;;;;;;26.70;14.77;;;;;;;12.67;100.00;101198.38;7392449;19;20385;-62
2022/07/04 02:23:47;;;;;;;22.27;14.80;;;;;;;12.71;100.00;101192.47;7388010;19;20430;-63
2022/07/04 02:26:16;;;;;;;25.37;15.60;;;;;;;12.71;100.00;101194.19;7391541;19;20947;-62
2022/07/04 02:28:46;;;;;;;23.87;14.60;;;;;;;12.65;100.00;101192.22;7388126;19;20418;-61
2022/07/04 02:31:15;;;;;;;28.07;17.23;;;;;;;12.69;100.00;101189.84;7393649;19;20383;-63
2022/07/04 02:33:45;;;;;;;27.53;16.97;;;;;;;12.79;100.00;101195.38;7386783;19;20429;-62
2022/07/04 02:36:17;;;;;;;26.73;16.33;;;;;;;12.73;100.00;101189.97;7391413;19;20424;-62
2022/07/04 02:38:47;;;;;;;33.87;18.10;;;;;;;12.74;100.00;101191.72;7387616;19;20413;-61
2022/07/04 02:41:16;;;;;;;29.80;18.20;;;;;;;12.71;100.00;101191.63;7393151;19;20398;-63
2022/07/04 02:43:46;;;;;;;38.20;18.47;;;;;;;12.73;100.00;101198.63;7387602;19;20434;-62
2022/07/04 02:46:15;;;;;;;39.07;20.07;;;;;;;12.74;100.00;101202.06;7391431;19;20416;-62
2022/07/04 02:48:45;;;;;;;33.67;19.07;;;;;;;12.79;100.00;101210.91;7387005;19;20426;-61
2022/07/04 02:51:14;;;;;;;28.83;19.43;;;;;;;12.75;100.00;101186.59;7395326;19;20407;-62
2022/07/04 02:53:46;;;;;;;37.33;21.10;;;;;;;12.77;100.00;101186.69;7385626;19;20729;-62
2022/07/04 02:56:16;;;;;;;32.83;19.53;;;;;;;12.73;100.00;101188.25;7390653;19;20427;-62
2022/07/04 02:58:46;;;;;;;32.63;20.17;;;;;;;12.71;100.00;101195.06;7387661;19;20833;-62
2022/07/04 03:01:15;;;;;;;33.53;19.47;;;;;;;12.69;100.00;101194.13;7392765;19;20459;-62
2022/07/04 03:03:45;;;;;;;31.07;18.40;;;;;;;12.68;100.00;101192.38;7378858;19;20424;-62
2022/07/04 03:06:15;;;;;;;32.03;16.90;;;;;;;12.68;100.00;101197.53;7390432;19;20772;-62
2022/07/04 03:08:47;;;;;;;33.63;18.53;;;;;;;12.63;100.00;101197.38;7386488;19;20411;-62
2022/07/04 03:11:17;;;;;;;29.43;18.23;;;;;;;12.59;100.00;101199.75;7392427;19;20470;-63
2022/07/04 03:13:46;;;;;;;27.80;17.93;;;;;;;12.62;100.00;101205.94;7386103;19;20439;-62
2022/07/04 03:16:16;;;;;;;28.50;17.37;;;;;;;12.63;100.00;101197.38;7389885;19;20418;-63
2022/07/04 03:18:45;;;;;;;28.43;18.33;;;;;;;12.59;100.00;101207.50;7386309;19;20414;-62
2022/07/04 03:21:15;;;;;;;29.13;16.67;;;;;;;12.51;100.00;101210.69;7392305;19;20375;-61
2022/07/04 03:23:57;;;;;;;27.87;16.57;;;;;;;12.51;100.00;101213.25;7385744;19;20518;-62
2022/07/04 03:26:29;;;;;;;29.37;16.83;;;;;;;12.54;100.00;101210.81;7390149;19;20944;-62
2022/07/04 03:28:59;;;;;;;27.10;16.10;;;;;;;12.53;100.00;101209.06;7385705;19;20959;-62
2022/07/04 03:31:30;;;;;;;26.03;15.07;;;;;;;12.53;100.00;101205.56;7391496;19;20391;-62
2022/07/04 03:33:59;;;;;;;24.40;15.20;;;;;;;12.60;100.00;101198.94;7389301;19;20810;-62
2022/07/04 03:36:29;;;;;;;28.27;16.90;;;;;;;12.54;100.00;101205.63;7399009;19;20401;-62
2022/07/04 03:39:01;;;;;;;30.13;17.20;;;;;;;12.58;100.00;101197.97;7392676;19;20429;-62
2022/07/04 03:41:31;;;;;;;34.47;16.67;;;;;;;12.59;100.00;101204.94;7398994;19;20745;-62
2022/07/04 03:44:00;;;;;;;26.80;17.03;;;;;;;12.65;100.00;101208.66;7390551;19;20422;-62
2022/07/04 03:46:30;;;;;;;29.60;16.17;;;;;;;12.61;100.00;101208.47;7399208;19;20487;-62
2022/07/04 03:48:59;;;;;;;24.13;16.20;;;;;;;12.58;100.00;101203.16;7393300;19;20489;-62
2022/07/04 03:51:29;;;;;;;23.47;15.13;;;;;;;12.57;100.00;101210.06;7398898;19;20921;-62
2022/07/04 03:54:01;;;;;;;23.00;15.23;;;;;;;12.58;100.00;101200.56;7394151;19;20462;-62
2022/07/04 03:56:31;;;;;;;25.80;15.47;;;;;;;12.56;100.00;101196.22;7398657;19;20386;-62
2022/07/04 03:59:00;;;;;;;21.93;15.60;;;;;;;12.55;100.00;101206.50;7392064;19;20429;-62
2022/07/04 04:01:30;;;;;;;25.10;16.10;;;;;;;12.57;100.00;101215.25;7398558;19;20830;-62
2022/07/04 04:06:42;;;;;;;21.77;15.23;;;;;;;12.52;100.00;101211.56;7398626;19;20388;-62
2022/07/04 04:09:17;;;;;;;30.60;16.33;;;;;;;12.54;100.00;101220.28;7397456;19;20404;-62
2022/07/04 04:11:46;;;;;;;25.97;16.90;;;;;;;12.51;100.00;101226.22;7391205;19;20389;-62
2022/07/04 04:14:16;;;;;;;25.73;16.40;;;;;;;12.55;100.00;101233.28;7396404;19;20378;-62
2022/07/04 04:16:45;;;;;;;27.37;17.57;;;;;;;12.56;100.00;101229.88;7391282;19;20404;-62
2022/07/04 04:19:15;;;;;;;29.13;16.30;;;;;;;12.61;100.00;101232.63;7397715;19;20394;-62
2022/07/04 04:21:45;;;;;;;29.53;16.83;;;;;;;12.78;100.00;101230.72;7393731;19;20426;-62
2022/07/04 04:24:17;;;;;;;28.57;17.90;;;;;;;12.77;100.00;101220.34;7396522;19;20387;-62
2022/07/04 04:26:47;;;;;;;31.67;18.70;;;;;;;12.77;100.00;101210.84;7392514;19;20376;-62
2022/07/04 04:29:16;;;;;;;28.57;16.80;;;;;;;12.84;100.00;101201.63;7397097;19;20917;-62
2022/07/04 04:31:46;;;;;;;32.23;17.07;;;;;;;12.79;100.00;101204.03;7390126;19;20458;-61
2022/07/04 04:34:16;;;;;;;27.07;17.47;;;;;;;12.87;100.00;101208.63;7395928;19;20385;-62
2022/07/04 04:36:45;;;;;;;29.10;17.97;;;;;;;12.89;100.00;101205.28;7389658;19;20461;-62
2022/07/04 04:39:17;;;;;;;31.17;17.50;;;;;;;12.96;100.00;101198.63;7395828;19;20459;-61
2022/07/04 04:41:47;;;;;;;23.33;16.23;;;;;;;12.95;100.00;101202.03;7392229;19;20385;-62
2022/07/04 04:44:17;;;;;;;29.03;16.80;;;;;;;12.96;100.00;101185.69;7394305;19;20944;-62
2022/07/04 04:46:46;;;;;;;27.37;17.43;;;;;;;13.00;100.00;101190.16;7390175;19;20396;-62
2022/07/04 04:49:16;;;;;;;21.33;14.50;;;;;;;13.03;100.00;101192.84;7395942;19;20384;-62
2022/07/04 04:51:46;;;;;;;21.53;13.93;;;;;;;13.10;100.00;101192.28;7390780;19;20389;-62
2022/07/04 04:54:18;;;;;;;24.87;15.43;;;;;;;13.17;100.00;101192.53;7399005;19;20393;-62
2022/07/04 04:56:48;;;;;;;21.10;13.40;;;;;;;13.33;100.00;101188.81;7390763;19;20385;-62
2022/07/04 04:59:17;;;;;;;26.13;15.07;;;;;;;13.36;100.00;101174.25;7396139;19;20796;-62
2022/07/04 05:01:47;;;;;;;23.27;13.63;;;;;;;13.40;100.00;101163.97;7390504;19;20771;-62
2022/07/04 05:04:18;;;;;;;24.23;12.70;;;;;;;13.49;100.00;101147.09;7394466;19;20400;-61
2022/07/04 05:06:47;;;;;;;18.60;12.93;;;;;;;13.56;100.00;101142.13;7390537;19;20386;-62
2022/07/04 05:09:20;;;;;;;16.47;11.00;;;;;;;13.58;100.00;101138.75;7395793;19;20386;-63
2022/07/04 05:11:50;;;;;;;18.97;10.40;;;;;;;13.59;100.00;101134.47;7388851;19;20388;-62
2022/07/04 05:14:19;;;;;;;25.13;11.60;;;;;;;13.59;100.00;101124.97;7394445;19;20384;-62
2022/07/04 05:16:49;;;;;;;19.27;9.63;;;;;;;13.61;100.00;101125.03;7388984;19;20401;-61
2022/07/04 05:19:19;;;;;;;14.40;8.80;;;;;;;13.71;100.00;101116.75;7394552;19;20385;-62
2022/07/04 05:21:48;;;;;;;17.20;10.00;;;;;;;13.78;100.00;101110.03;7388539;19;20393;-62
2022/07/04 05:24:20;;;;;;;17.27;8.70;;;;;;;13.77;100.00;101111.78;7393879;19;20402;-61
2022/07/04 05:26:50;;;;;;;12.37;7.13;;;;;;;13.82;100.00;101105.84;7392184;19;20393;-62
2022/07/04 05:29:19;;;;;;;21.60;7.90;;;;;;;13.83;100.00;101105.91;7395023;19;20403;-62
2022/07/04 05:31:49;;;;;;;11.70;6.30;;;;;;;13.94;100.00;101100.22;7388428;19;20400;-62
2022/07/04 05:34:19;;;;;;;15.40;6.97;;;;;;;14.00;100.00;101090.03;7393307;19;20479;-61
2022/07/04 05:36:48;;;;;;;10.47;5.80;;;;;;;14.04;100.00;101091.88;7386413;19;20376;-62
2022/07/04 05:39:20;;;;;;;8.87;5.27;;;;;;;14.12;100.00;101082.66;7394194;19;20942;-62
2022/07/04 05:41:50;;;;;;;10.00;5.50;;;;;;;14.17;100.00;101086.25;7387916;19;20910;-62
2022/07/04 05:44:20;;;;;;;7.60;4.30;;;;;;;14.26;100.00;101090.00;7392562;19;20406;-62
2022/07/04 05:46:49;;;;;;;8.07;4.23;;;;;;;14.31;100.00;101096.22;7388622;19;20391;-62
2022/07/04 05:49:19;;;;;;;6.37;3.33;;;;;;;14.27;100.00;101099.53;7394549;19;20381;-61
2022/07/04 05:51:49;;;;;;;11.60;4.90;;;;;;;14.42;100.00;101099.16;7387865;19;20390;-62
2022/07/04 05:54:21;;;;;;;6.83;3.57;;;;;;;14.53;100.00;101102.06;7393479;19;21014;-62
2022/07/04 05:56:50;;;;;;;4.40;3.10;;;;;;;14.54;100.00;101098.63;7387288;19;20391;-62
2022/07/04 05:59:20;;;;;;;12.63;6.10;;;;;;;14.57;100.00;101109.13;7393763;19;20467;-61
2022/07/04 06:01:50;;;;;;;8.97;3.07;;;;;;;14.61;100.00;101113.56;7386769;19;20398;-61
2022/07/04 06:04:20;;;;;;;6.00;2.37;;;;;;;14.66;100.00;101116.31;7393108;19;20392;-61
2022/07/04 06:06:49;;;;;;;4.40;2.10;;;;;;;14.64;100.00;101121.47;7388470;19;20388;-62
2022/07/04 06:09:22;;;;;;;3.10;2.07;;;;;;;14.72;100.00;101125.16;7393733;19;20392;-62
2022/07/04 06:11:51;;;;;;;5.73;2.27;;;;;;;14.84;100.00;101136.81;7388149;19;20389;-61
2022/07/04 06:14:21;;;;;;;5.23;2.10;;;;;;;14.96;100.00;101138.88;7391230;19;20716;-62
2022/07/04 06:16:50;;;;;;;8.50;2.60;;;;;;;14.95;100.00;101161.41;7386562;19;20388;-61
2022/07/04 06:19:20;;;;;;;10.23;2.43;;;;;;;14.93;100.00;101165.63;7393115;19;20460;-61
2022/07/04 06:21:50;;;;;;;4.50;1.97;;;;;;;14.95;100.00;101174.38;7388275;19;20394;-61
2022/07/04 06:24:22;;;;;;;5.47;2.30;;;;;;;15.05;100.00;101179.84;7392321;19;20389;-61
2022/07/04 06:26:52;;;;;;;5.53;1.87;;;;;;;15.17;100.00;101181.94;7388556;19;20941;-62
2022/07/04 06:29:22;;;;;;;5.17;1.97;;;;;;;15.17;100.00;101193.19;7392267;19;20466;-62
2022/07/04 06:31:51;;;;;;;5.70;1.90;;;;;;;15.24;100.00;101202.94;7386916;19;20740;-61
2022/07/04 06:37:03;;;;;;;11.87;1.90;;;;;;;15.37;100.00;101208.50;7385360;19;20789;-62
2022/07/04 06:39:35;;;;;;;4.80;2.00;;;;;;;15.48;100.00;101209.69;7393431;19;20466;-62
2022/07/04 06:42:05;;;;;;;5.77;1.87;;;;;;;15.64;100.00;101218.81;7384723;19;20414;-61
2022/07/04 06:44:35;;;;;;;7.97;2.03;;;;;;;15.78;100.00;101216.63;7395512;19;20419;-62
2022/07/04 06:47:05;;;;;;;5.03;2.63;;;;;;;15.90;100.00;101236.00;7388918;19;20423;-61
2022/07/04 06:49:34;;;;;;;4.93;1.70;;;;;;;15.88;100.00;101243.75;7390693;19;20425;-62
2022/07/04 06:52:04;;;;;;;4.50;2.23;;;;;;;15.77;100.00;101251.28;7390472;19;20434;-61
2022/07/04 06:54:36;;;;;;;8.90;4.20;;;;;;;15.82;100.00;101254.00;7391606;19;20409;-62
2022/07/04 06:57:07;;;;;;;3.90;2.20;;;;;;;15.87;100.00;101262.81;7383980;19;21160;-62
2022/07/04 06:59:56;;;;;;;21.53;8.20;;;;;;;15.80;100.00;101277.34;7395544;19;20395;-62
2022/07/04 07:02:26;;;;;;;40.93;12.67;;;;;;;15.96;100.00;101277.84;7386207;19;20425;-62
2022/07/04 07:04:57;;;;;;;9.40;3.43;;;;;;;16.15;100.00;101284.41;7391038;19;20421;-61
2022/07/04 07:07:29;;;;;;;5.30;1.97;;;;;;;16.16;100.00;101293.13;7386792;19;20416;-61
2022/07/04 07:10:02;;;;;;;4.20;1.60;;;;;;;16.23;100.00;101292.44;7399814;19;20390;-62
2022/07/04 07:12:32;;;;;;;5.23;2.00;;;;;;;16.31;100.00;101303.94;7391962;19;20424;-61
2022/07/04 07:15:03;;;;;;;3.77;1.70;;;;;;;16.31;100.00;101308.28;7398063;19;20457;-61
2022/07/04 07:17:32;;;;;;;3.27;1.60;;;;;;;16.25;100.00;101301.16;7393701;19;20418;-61
2022/07/04 07:20:02;;;;;;;5.37;1.90;;;;;;;16.21;100.00;101307.16;7399261;19;21021;-62
2022/07/04 07:22:31;;;;;;;8.43;2.93;;;;;;;16.56;100.00;101316.75;7392588;19;20425;-62
2022/07/04 07:25:03;;;;;;;5.10;2.33;;;;;;;16.66;100.00;101338.69;7397707;19;20757;-62
2022/07/04 07:27:33;;;;;;;8.23;2.20;;;;;;;16.42;100.00;101350.22;7387982;19;20495;-63
2022/07/04 07:30:03;;;;;;;4.40;1.77;;;;;;;16.40;100.00;101350.16;7402730;19;20406;-62
2022/07/04 07:32:32;;;;;;;6.23;1.87;;;;;;;16.54;100.00;101347.94;7392267;19;20426;-62
2022/07/04 07:35:02;;;;;;;3.80;1.50;;;;;;;16.77;100.00;101345.03;7397115;19;20443;-62
2022/07/04 07:37:32;;;;;;;4.40;1.60;;;;;;;16.82;100.00;101340.81;7392141;19;20421;-62
2022/07/04 07:40:04;;;;;;;4.70;2.10;;;;;;;16.64;100.00;101355.97;7398491;19;20412;-63
2022/07/04 07:42:34;;;;;;;6.33;1.93;;;;;;;16.30;100.00;101367.25;7392114;19;20411;-62
2022/07/04 07:45:04;;;;;;;26.53;7.80;;;;;;;16.38;100.00;101380.50;7397115;19;20413;-60
2022/07/04 07:47:33;;;;;;;3.70;1.73;;;;;;;16.82;100.00;101369.50;7392597;19;20423;-62
2022/07/04 07:50:03;;;;;;;6.83;1.50;;;;;;;16.99;100.00;101389.91;7399232;19;20404;-62
2022/07/04 07:52:33;;;;;;;6.17;1.70;;;;;;;16.99;100.00;101416.81;7390114;19;20424;-62
2022/07/04 07:55:06;;;;;;;2.43;1.30;;;;;;;16.88;100.00;101434.78;7396872;19;20412;-61
2022/07/04 07:57:36;;;;;;;14.60;4.10;;;;;;;16.57;100.00;101457.41;7390934;19;20948;-61
2022/07/04 08:00:07;;;;;;;7.57;1.73;;;;;;;16.65;100.00;101467.16;7397750;19;20755;-62
2022/07/04 08:05:18;;;;;;;8.33;2.07;;;;;;;16.91;100.00;101467.88;7395621;19;20407;-62
2022/07/04 08:07:48;;;;;;;5.20;1.70;;;;;;;17.02;100.00;101481.22;7391675;19;20421;-62
2022/07/04 08:10:20;;;;;;;6.87;2.60;;;;;;;17.06;100.00;101501.31;7397400;19;20764;-62
2022/07/04 08:12:50;;;;;;;5.27;1.53;;;;;;;17.25;100.00;101517.47;7390628;19;20443;-62
2022/07/04 08:15:19;;;;;;;5.40;2.07;;;;;;;17.08;100.00;101541.34;7395418;19;20863;-62
2022/07/04 08:17:49;;;;;;;13.13;3.50;;;;;;;17.31;100.00;101532.38;7389939;19;20428;-61
2022/07/04 08:20:18;;;;;;;5.27;1.33;;;;;;;17.56;100.00;101513.03;7394795;19;20388;-62
2022/07/04 08:22:48;;;;;;;20.70;6.00;;;;;;;17.50;100.00;101565.94;7390234;19;20759;-62
2022/07/04 08:25:21;;;;;;;3.40;1.33;;;;;;;17.78;100.00;101556.19;7395453;19;20414;-62
2022/07/04 08:27:51;;;;;;;16.30;3.90;;;;;;;17.95;100.00;101553.13;7390771;19;20445;-62
2022/07/04 08:30:21;;;;;;;9.70;2.90;;;;;;;17.98;100.00;101554.88;7396739;19;20404;-62
2022/07/04 08:32:50;;;;;;;11.60;2.63;;;;;;;18.05;100.00;101596.00;7388834;19;20501;-62
2022/07/04 08:35:20;;;;;;;4.57;1.23;;;;;;;18.10;100.00;101610.03;7394366;19;20937;-62
2022/07/04 08:37:53;;;;;;;18.23;8.33;;;;;;;17.91;100.00;101640.00;7387128;19;20411;-62
2022/07/04 08:40:26;;;;;;;4.73;1.23;;;;;;;18.06;100.00;101631.72;7396724;19;20467;-62
2022/07/04 08:42:56;;;;;;;5.90;2.30;;;;;;;17.95;100.00;101652.31;7389140;19;20422;-61
2022/07/04 08:45:29;;;;;;;4.77;1.70;;;;;;;17.71;100.00;101662.97;7394648;19;20747;-62
2022/07/04 08:48:03;;;;;;;3.37;1.20;;;;;;;17.94;100.00;101645.31;7390582;19;20448;-62
2022/07/04 08:50:34;;;;;;;5.07;2.23;;;;;;;18.27;100.00;101643.53;7400427;19;20387;-61
2022/07/04 08:53:05;;;;;;;4.30;1.40;;;;;;;18.21;100.00;101660.81;7390840;19;20425;-62
2022/07/04 08:58:30;;;;;;;7.50;2.77;;;;;;;18.61;100.00;101679.16;7389725;19;20425;-62
2022/07/04 09:01:01;;;;;;;4.57;1.13;;;;;;;18.51;100.00;101671.09;7396421;19;20396;-62
2022/07/04 09:03:31;;;;;;;7.27;1.63;;;;;;;18.54;100.00;101676.38;7389859;19;20442;-61
2022/07/04 09:06:02;;;;;;;6.60;2.10;;;;;;;18.65;100.00;101682.72;7393823;19;20415;-62
2022/07/04 09:08:32;;;;;;;8.20;4.43;;;;;;;18.81;100.00;101696.16;7389235;19;20429;-62
2022/07/04 09:11:04;;;;;;;13.70;6.43;;;;;;;18.79;100.00;101710.91;7396253;19;20384;-62
2022/07/04 09:13:34;;;;;;;27.87;10.77;;;;;;;18.41;100.00;101728.31;7390409;19;20418;-63
2022/07/04 09:16:04;;;;;;;26.20;7.90;;;;;;;18.25;100.00;101707.91;7393308;19;20454;-62
2022/07/04 09:18:35;;;;;;;6.10;2.13;;;;;;;18.47;100.00;101689.28;7388948;19;20419;-62
2022/07/04 09:21:07;;;;;;;10.40;2.70;;;;;;;18.87;100.00;101684.09;7395772;19;20398;-62
2022/07/04 09:23:38;;;;;;;15.83;4.20;;;;;;;18.70;100.00;101703.72;7387712;19;20423;-63
2022/07/04 09:26:15;;;;;;;14.83;5.00;;;;;;;18.53;100.00;101696.41;7392856;19;20944;-63
2022/07/04 09:28:46;;;;;;;9.77;3.27;;;;;;;18.51;100.00;101698.06;7388940;19;20754;-62
2022/07/04 09:31:21;;;;;;;26.50;7.80;;;;;;;18.42;100.00;101700.47;7395381;19;20384;-62
2022/07/04 09:33:54;;;;;;;18.30;6.50;;;;;;;18.37;100.00;101694.25;7388788;19;20410;-62
2022/07/04 09:36:25;;;;;;;17.80;5.20;;;;;;;18.48;100.00;101705.84;7392369;19;20475;-62
2022/07/04 09:39:11;;;;;;;4.63;1.70;;;;;;;18.55;100.00;101699.06;7388862;19;20972;-61
2022/07/04 09:42:00;;;;;;;6.77;2.03;;;;;;;18.80;100.00;101718.78;7394147;19;20375;-63
2022/07/04 09:44:31;;;;;;;11.10;2.70;;;;;;;18.68;100.00;101766.44;7390202;19;20482;-63
2022/07/04 09:47:01;;;;;;;4.03;1.00;;;;;;;18.38;100.00;101762.22;7383036;19;20411;-63
2022/07/04 09:49:30;;;;;;;4.30;1.63;;;;;;;18.68;100.00;101766.44;7391348;19;20395;-62
2022/07/04 09:52:00;;;;;;;5.23;1.00;;;;;;;19.00;100.00;101758.47;7384407;19;20733;-61
2022/07/04 09:54:31;;;;;;;3.63;0.90;;;;;;;19.36;100.00;101772.34;7390961;19;20848;-62
2022/07/04 09:57:06;;;;;;;3.90;1.30;;;;;;;19.09;100.00;101725.56;7384679;19;20823;-63
2022/07/04 09:59:35;;;;;;;4.80;1.23;;;;;;;19.46;100.00;101702.78;7391627;19;20388;-63
2022/07/04 10:02:10;;;;;;;5.30;1.30;;;;;;;19.82;100.00;101730.53;7383643;19;20422;-62
2022/07/04 10:04:47;;;;;;;4.67;1.43;;;;;;;20.29;100.00;101871.97;7390675;19;20394;-63
2022/07/04 10:07:36;;;;;;;5.70;1.50;;;;;;;20.01;100.00;101956.13;7385627;19;20403;-62
2022/07/04 10:10:25;;;;;;;3.10;1.10;;;;;;;19.56;100.00;101974.31;7392135;19;20394;-63
2022/07/04 10:12:58;;;;;;;3.83;1.10;;;;;;;19.39;100.00;101981.72;7386192;19;20423;-66
2022/07/04 10:15:28;;;;;;;5.43;1.30;;;;;;;19.08;100.00;101993.16;7390457;19;20744;-61
2022/07/04 10:17:58;;;;;;;5.57;2.80;;;;;;;18.93;100.00;101989.28;7384821;19;20430;-63
2022/07/04 10:20:28;;;;;;;4.13;1.80;;;;;;;18.81;100.00;101992.44;7391391;19;20399;-62
2022/07/04 10:22:57;;;;;;;9.43;1.93;;;;;;;19.22;100.00;101988.28;7385714;19;20419;-62
2022/07/04 10:25:27;;;;;;;4.03;1.67;;;;;;;19.63;100.00;101996.25;7390956;19;20415;-60
2022/07/04 10:27:59;;;;;;;5.23;2.07;;;;;;;19.54;100.00;102002.16;7385283;19;20419;-63
2022/07/04 10:30:31;;;;;;;6.40;1.27;;;;;;;19.25;100.00;101997.09;7391225;19;20388;-64
2022/07/04 10:33:09;;;;;;;6.50;1.27;;;;;;;18.88;100.00;102009.19;7384583;19;20449;-63
2022/07/04 10:35:53;;;;;;;4.00;0.93;;;;;;;18.96;100.00;101994.56;7389198;19;20426;-63
2022/07/04 10:38:24;;;;;;;4.77;1.50;;;;;;;19.26;100.00;101990.13;7381868;19;20434;-61
2022/07/04 10:40:56;;;;;;;4.77;1.10;;;;;;;19.13;100.00;101994.16;7392886;19;20922;-62
2022/07/04 10:44:06;;;;;;;3.63;1.03;;;;;;;19.27;100.00;101984.94;7383051;19;20415;-61
2022/07/04 10:46:46;;;;;;;3.47;0.90;;;;;;;19.38;100.00;101992.19;7391807;19;20763;-61
2022/07/04 10:49:34;;;;;;;3.00;0.90;;;;;;;19.48;100.00;101980.19;7390633;19;20430;-62
2022/07/04 10:52:14;;;;;;;6.20;1.30;;;;;;;19.18;100.00;101955.94;7385147;19;20465;-62
2022/07/04 10:54:45;;;;;;;4.60;0.90;;;;;;;19.20;100.00;101969.03;7390929;19;20409;-63
2022/07/04 10:57:17;;;;;;;5.17;0.90;;;;;;;19.40;100.00;101961.69;7384921;19;20490;-63
2022/07/04 11:00:05;;;;;;;2.60;0.73;;;;;;;19.95;100.00;101937.63;7391134;19;20384;-63
2022/07/04 11:02:38;;;;;;;2.63;1.00;;;;;;;19.71;100.00;101771.31;7384983;19;20490;-64
2022/07/04 11:05:10;;;;;;;2.30;0.80;;;;;;;19.87;100.00;101784.69;7390754;19;20824;-63
2022/07/04 11:08:03;;;;;;;2.80;1.00;;;;;;;19.88;100.00;101812.66;7386015;19;20415;-62
2022/07/04 11:10:33;;;;;;;6.40;1.40;;;;;;;20.03;100.00;101844.41;7392309;19;20547;-62
2022/07/04 11:13:21;;;;;;;5.20;0.90;;;;;;;20.32;100.00;101840.59;7386312;19;20440;-63
2022/07/04 11:16:09;;;;;;;3.80;1.03;;;;;;;20.41;100.00;101874.81;7389856;19;20944;-62
2022/07/04 11:18:45;;;;;;;4.30;1.00;;;;;;;20.09;100.00;101765.06;7382803;19;20792;-62
2022/07/04 11:21:19;;;;;;;3.30;0.83;;;;;;;20.20;100.00;101783.63;7391519;19;20375;-64
2022/07/04 11:23:53;;;;;;;5.40;1.00;;;;;;;19.84;100.00;101769.81;7383781;19;20421;-63
2022/07/04 11:26:24;;;;;;;2.57;1.00;;;;;;;19.50;100.00;101737.75;7389644;19;20938;-62
2022/07/04 11:28:54;;;;;;;5.43;1.07;;;;;;;19.30;100.00;101725.13;7381769;19;20473;-61
2022/07/04 11:31:23;;;;;;;5.20;1.33;;;;;;;19.42;100.00;101793.41;7394316;19;21061;-62
2022/07/04 11:33:58;;;;;;;9.53;3.03;;;;;;;19.32;100.00;101773.13;7387410;19;20815;-62
2022/07/04 11:36:28;;;;;;;25.70;7.50;;;;;;;19.35;100.00;101765.38;7389465;19;20438;-63
2022/07/04 11:38:59;;;;;;;11.03;4.07;;;;;;;19.23;100.00;101713.66;7385432;19;20466;-62
2022/07/04 11:47:13;;;;;;;5.50;2.07;;;;;;;19.89;100.00;101578.78;7386457;19;20407;-63
2022/07/04 11:49:50;;;;;;;6.67;1.93;;;;;;;19.60;100.00;101545.13;7394885;19;20395;-62